Time;durP1;ratioP1;P1;durP2;ratioP2;P2;SDS_P1;SDS_P2;PMS_P1;PMS_P2;Temp;Humidity;BMP_temperature;BMP_pressure;BME280_temperature;BME280_humidity;BME280_pressure;Samples;Min_cycle;Max_cycle;Signal;HPM_P1;HPM_P2
2024/01/24 00:00:06;;;;;;;79.20;38.10;;;;;;;-2.04;70.61;102455.62;107634;1254;97837;-65
2024/01/24 00:02:58;;;;;;;75.10;38.90;;;;;;;-1.94;70.59;102461.67;107598;1254;111496;-65
2024/01/24 00:05:26;;;;;;;74.00;37.80;;;;;;;-1.93;70.10;102461.66;107668;1254;108300;-64
2024/01/24 00:07:55;;;;;;;79.30;38.30;;;;;;;-1.94;70.05;102460.27;107637;1254;107159;-64
2024/01/24 00:10:23;;;;;;;64.30;32.30;;;;;;;-1.93;69.99;102454.10;107589;1254;97813;-66
2024/01/24 00:12:51;;;;;;;73.20;35.70;;;;;;;-1.88;70.37;102456.00;107621;1254;97739;-63
2024/01/24 00:15:20;;;;;;;70.50;36.30;;;;;;;-1.81;70.33;102452.77;107604;1252;111258;-65
2024/01/24 00:17:48;;;;;;;70.40;35.90;;;;;;;-1.75;70.19;102448.13;107650;1253;108666;-64
2024/01/24 00:20:17;;;;;;;71.60;36.00;;;;;;;-1.70;70.01;102450.72;107592;1254;108178;-65
2024/01/24 00:22:45;;;;;;;76.50;37.50;;;;;;;-1.66;70.17;102456.48;107627;1254;97833;-64
2024/01/24 00:25:14;;;;;;;70.10;33.80;;;;;;;-1.61;70.04;102464.16;107617;1253;97691;-63
2024/01/24 00:27:42;;;;;;;72.40;35.90;;;;;;;-1.61;69.83;102459.58;107612;1254;112995;-63
2024/01/24 00:30:11;;;;;;;74.60;37.20;;;;;;;-1.56;69.78;102457.78;107625;1251;108371;-64
2024/01/24 00:32:40;;;;;;;72.80;38.30;;;;;;;-1.52;69.50;102457.21;107579;1254;108685;-63
2024/01/24 00:35:08;;;;;;;76.70;37.90;;;;;;;-1.49;69.39;102456.13;107587;1251;97908;-64
2024/01/24 00:37:36;;;;;;;70.10;36.30;;;;;;;-1.47;69.27;102453.98;107599;1251;97762;-63
2024/01/24 00:40:06;;;;;;;78.80;38.30;;;;;;;-1.49;68.81;102439.07;107610;1251;111739;-64
2024/01/24 00:42:34;;;;;;;80.10;39.90;;;;;;;-1.50;69.03;102445.23;107616;1256;108643;-64
2024/01/24 00:45:03;;;;;;;76.60;36.50;;;;;;;-1.50;69.01;102450.86;107529;1251;107088;-64
2024/01/24 00:47:31;;;;;;;76.00;35.90;;;;;;;-1.53;69.17;102438.22;107627;1251;98410;-64
2024/01/24 00:49:59;;;;;;;76.50;37.00;;;;;;;-1.52;68.70;102433.29;107560;1251;97934;-65
2024/01/24 00:52:28;;;;;;;71.00;35.90;;;;;;;-1.52;68.58;102437.34;107611;1251;111913;-64
2024/01/24 00:54:56;;;;;;;72.00;37.50;;;;;;;-1.53;68.71;102435.58;107614;1251;108377;-64
2024/01/24 00:57:25;;;;;;;75.70;36.80;;;;;;;-1.53;68.53;102433.13;107603;1251;107655;-65
2024/01/24 00:59:53;;;;;;;75.30;38.90;;;;;;;-1.54;68.72;102431.73;107564;1251;97819;-64
2024/01/24 01:02:22;;;;;;;72.40;36.10;;;;;;;-1.54;68.35;102427.69;107573;1251;97813;-64
2024/01/24 01:04:50;;;;;;;72.90;39.90;;;;;;;-1.56;68.72;102424.52;107590;1251;111805;-64
2024/01/24 01:07:19;;;;;;;73.50;36.90;;;;;;;-1.55;68.55;102427.33;107599;1251;108128;-64
2024/01/24 01:09:47;;;;;;;75.70;37.80;;;;;;;-1.54;68.44;102425.73;107552;1254;107918;-65
2024/01/24 01:12:15;;;;;;;75.50;38.70;;;;;;;-1.56;68.68;102434.02;107513;1251;97832;-63
2024/01/24 01:14:46;;;;;;;73.30;36.20;;;;;;;-1.59;68.91;102439.34;107584;1251;97832;-65
2024/01/24 01:17:15;;;;;;;77.70;37.40;;;;;;;-1.63;69.14;102439.39;107515;1251;111316;-64
2024/01/24 01:19:43;;;;;;;72.20;38.20;;;;;;;-1.68;69.13;102437.50;107551;1251;108490;-65
2024/01/24 01:22:12;;;;;;;78.30;38.30;;;;;;;-1.69;69.12;102438.21;107581;1250;107623;-63
2024/01/24 01:24:40;;;;;;;72.40;37.30;;;;;;;-1.70;69.13;102434.36;107557;1251;98576;-64
2024/01/24 01:27:09;;;;;;;70.90;38.80;;;;;;;-1.69;69.10;102429.08;107547;1251;97867;-63
2024/01/24 01:29:37;;;;;;;77.40;38.20;;;;;;;-1.69;69.50;102428.36;107527;1251;111769;-64
2024/01/24 01:32:06;;;;;;;69.70;36.50;;;;;;;-1.69;69.68;102423.95;107553;1251;107618;-64
2024/01/24 01:34:34;;;;;;;75.30;38.40;;;;;;;-1.70;69.63;102418.88;107562;1251;106060;-63
2024/01/24 01:37:03;;;;;;;74.00;38.60;;;;;;;-1.68;69.90;102406.72;107496;1251;97822;-64
2024/01/24 01:39:32;;;;;;;78.40;40.10;;;;;;;-1.67;69.99;102404.06;107554;1254;98376;-63
2024/01/24 01:42:01;;;;;;;79.10;40.00;;;;;;;-1.66;70.12;102404.58;107551;1251;111236;-64
2024/01/24 01:44:29;;;;;;;77.50;40.00;;;;;;;-1.63;70.02;102399.63;107594;1250;107667;-64
2024/01/24 01:46:57;;;;;;;76.10;38.20;;;;;;;-1.61;70.11;102401.18;107501;1250;108738;-64
2024/01/24 01:49:26;;;;;;;72.00;37.30;;;;;;;-1.57;70.20;102399.55;107637;1253;98603;-64
2024/01/24 01:51:56;;;;;;;79.80;39.40;;;;;;;-1.54;70.33;102397.07;107605;1254;98044;-64
2024/01/24 01:54:24;;;;;;;78.50;39.50;;;;;;;-1.49;70.71;102396.64;107647;1252;112169;-63
2024/01/24 01:56:53;;;;;;;81.20;39.20;;;;;;;-1.44;70.80;102397.65;107642;1256;107787;-64
2024/01/24 01:59:21;;;;;;;75.10;39.40;;;;;;;-1.41;71.06;102392.67;107551;1251;108925;-65
2024/01/24 02:01:54;;;;;;;82.90;40.80;;;;;;;-1.34;71.32;102395.93;107613;1254;97926;-64
2024/01/24 02:04:23;;;;;;;71.20;36.20;;;;;;;-1.27;71.65;102392.33;107597;1254;97707;-64
2024/01/24 02:06:52;;;;;;;71.60;37.40;;;;;;;-1.21;71.93;102388.73;107527;1251;112124;-62
2024/01/24 02:09:20;;;;;;;76.60;37.50;;;;;;;-1.20;71.77;102387.66;107441;1251;108528;-64
2024/01/24 02:11:48;;;;;;;70.70;36.40;;;;;;;-1.17;71.96;102386.22;107489;1251;107693;-64
2024/01/24 02:14:17;;;;;;;77.90;38.80;;;;;;;-1.12;71.93;102387.73;107468;1251;97870;-64
2024/01/24 02:16:45;;;;;;;73.50;38.70;;;;;;;-1.03;72.24;102389.71;107672;1252;97761;-64
2024/01/24 02:19:13;;;;;;;71.10;37.00;;;;;;;-0.92;72.43;102390.45;107637;1256;111314;-65
2024/01/24 02:21:42;;;;;;;79.30;37.80;;;;;;;-0.81;72.48;102384.30;107525;1251;107995;-65
2024/01/24 02:24:12;;;;;;;70.80;36.20;;;;;;;-0.71;72.57;102380.63;107459;1251;107861;-63
2024/01/24 02:26:40;;;;;;;69.30;35.10;;;;;;;-0.63;72.33;102377.68;107573;1251;97870;-64
2024/01/24 02:29:08;;;;;;;69.30;33.70;;;;;;;-0.56;72.12;102377.39;107629;1251;98457;-64
2024/01/24 02:31:37;;;;;;;69.90;37.80;;;;;;;-0.58;71.83;102372.50;107478;1251;111697;-64
2024/01/24 02:34:05;;;;;;;69.90;36.80;;;;;;;-0.59;71.92;102375.85;107500;1251;107431;-65
2024/01/24 02:36:34;;;;;;;67.50;36.70;;;;;;;-0.62;71.43;102379.96;107533;1251;107572;-63
2024/01/24 02:39:02;;;;;;;71.30;35.40;;;;;;;-0.63;71.27;102376.10;107497;1251;97838;-64
2024/01/24 02:41:32;;;;;;;80.80;39.10;;;;;;;-0.65;71.18;102375.25;107533;1251;97739;-63
2024/01/24 02:44:00;;;;;;;73.20;39.10;;;;;;;-0.67;71.33;102376.16;107528;1251;110831;-64
2024/01/24 02:46:29;;;;;;;73.40;37.60;;;;;;;-0.73;71.07;102378.54;107518;1251;107783;-63
2024/01/24 02:48:57;;;;;;;70.20;35.80;;;;;;;-0.79;71.16;102373.52;107486;1251;107077;-63
2024/01/24 02:51:26;;;;;;;75.70;37.30;;;;;;;-0.85;71.27;102372.91;107483;1251;97930;-64
2024/01/24 02:53:55;;;;;;;78.00;39.10;;;;;;;-0.91;71.26;102377.75;107560;1250;98376;-63
2024/01/24 02:56:23;;;;;;;74.80;38.70;;;;;;;-0.91;71.34;102376.88;107596;1250;112142;-64
2024/01/24 02:58:52;;;;;;;72.90;39.50;;;;;;;-0.92;71.30;102376.89;107665;1254;108294;-64
2024/01/24 03:01:21;;;;;;;73.20;36.80;;;;;;;-0.94;71.27;102370.23;107626;1255;107615;-64
2024/01/24 03:03:49;;;;;;;68.90;37.10;;;;;;;-0.95;71.20;102369.70;107657;1254;97800;-65
2024/01/24 03:06:18;;;;;;;74.20;38.40;;;;;;;-0.97;71.39;102364.62;107557;1251;97867;-65
2024/01/24 03:08:47;;;;;;;73.10;39.50;;;;;;;-0.99;71.52;102365.01;107548;1250;112026;-64
2024/01/24 03:11:16;;;;;;;79.90;37.80;;;;;;;-1.04;71.26;102362.61;107620;1253;108574;-65
2024/01/24 03:13:45;;;;;;;76.70;39.60;;;;;;;-1.06;71.26;102361.41;107675;1253;108247;-64
2024/01/24 03:16:13;;;;;;;70.30;37.50;;;;;;;-1.08;71.50;102364.43;107624;1254;97898;-63
2024/01/24 03:18:42;;;;;;;73.00;40.80;;;;;;;-1.11;71.18;102367.30;107654;1254;98393;-64
2024/01/24 03:21:16;;;;;;;75.20;39.30;;;;;;;-1.16;71.24;102365.23;107625;1254;110657;-66
2024/01/24 03:23:45;;;;;;;82.00;40.30;;;;;;;-1.23;71.33;102368.51;107655;1254;108607;-64
2024/01/24 03:26:15;;;;;;;76.70;40.30;;;;;;;-1.31;71.34;102371.25;107651;1254;108501;-64
2024/01/24 03:28:43;;;;;;;88.50;41.20;;;;;;;-1.40;71.53;102372.95;107573;1252;99319;-64
2024/01/24 03:31:12;;;;;;;84.50;41.50;;;;;;;-1.48;71.77;102374.64;107583;1253;98360;-66
2024/01/24 03:33:41;;;;;;;71.80;39.30;;;;;;;-1.54;71.74;102374.18;107684;1253;111220;-64
2024/01/24 03:36:09;;;;;;;85.00;42.00;;;;;;;-1.59;71.56;102381.63;107601;1251;108405;-65
2024/01/24 03:38:38;;;;;;;75.00;39.00;;;;;;;-1.61;71.55;102378.14;107569;1254;107859;-65
2024/01/24 03:41:07;;;;;;;82.70;41.10;;;;;;;-1.63;71.53;102376.94;107490;1254;97893;-65
2024/01/24 03:43:42;;;;;;;83.30;42.30;;;;;;;-1.66;71.41;102380.83;107562;1251;98546;-65
2024/01/24 03:46:10;;;;;;;89.70;43.20;;;;;;;-1.67;71.28;102385.24;107606;1251;111899;-64
2024/01/24 03:48:39;;;;;;;85.00;44.20;;;;;;;-1.67;71.29;102385.07;107546;1250;108254;-64
2024/01/24 03:51:08;;;;;;;83.90;44.20;;;;;;;-1.67;71.35;102387.00;107487;1251;107694;-65
2024/01/24 03:53:37;;;;;;;83.30;42.00;;;;;;;-1.68;71.85;102387.00;107494;1251;97844;-65
2024/01/24 03:56:06;;;;;;;78.90;42.80;;;;;;;-1.64;72.09;102386.61;107487;1251;97716;-65
2024/01/24 03:58:36;;;;;;;91.80;45.60;;;;;;;-1.60;72.37;102384.10;107582;1251;111240;-65
2024/01/24 04:01:05;;;;;;;78.30;40.60;;;;;;;-1.54;72.87;102387.02;107520;1251;107615;-65
2024/01/24 04:03:33;;;;;;;83.00;40.40;;;;;;;-1.48;72.84;102386.77;107548;1251;106901;-65
2024/01/24 04:06:02;;;;;;;83.50;39.60;;;;;;;-1.44;73.13;102383.91;107581;1251;97860;-64
2024/01/24 04:08:30;;;;;;;82.50;42.30;;;;;;;-1.38;73.29;102380.48;107604;1250;97807;-65
2024/01/24 04:10:59;;;;;;;74.80;39.20;;;;;;;-1.31;73.50;102378.83;107545;1251;110474;-65
2024/01/24 04:13:27;;;;;;;83.50;41.50;;;;;;;-1.23;73.44;102372.56;107586;1251;108004;-64
2024/01/24 04:15:56;;;;;;;77.10;39.30;;;;;;;-1.17;73.65;102376.17;107634;1251;107859;-66
2024/01/24 04:18:24;;;;;;;77.80;37.80;;;;;;;-1.10;73.70;102387.52;107575;1254;97920;-65
2024/01/24 04:20:53;;;;;;;77.20;40.60;;;;;;;-1.05;73.97;102386.05;107640;1251;97831;-64
2024/01/24 04:23:21;;;;;;;74.00;39.10;;;;;;;-1.01;74.02;102386.52;107667;1251;111411;-65
2024/01/24 04:25:50;;;;;;;75.20;38.30;;;;;;;-0.98;73.75;102382.60;107636;1251;108057;-65
2024/01/24 04:28:18;;;;;;;81.20;37.80;;;;;;;-0.93;73.75;102383.08;107584;1251;107976;-65
2024/01/24 04:30:46;;;;;;;76.30;38.90;;;;;;;-0.95;73.51;102382.04;107543;1250;97816;-65
2024/01/24 04:33:15;;;;;;;78.20;39.30;;;;;;;-0.96;73.41;102381.88;107661;1252;97707;-65
2024/01/24 04:35:44;;;;;;;81.40;40.70;;;;;;;-0.96;73.44;102383.11;107644;1251;111419;-65
2024/01/24 04:38:12;;;;;;;79.60;39.20;;;;;;;-0.96;73.66;102381.70;107578;1251;107910;-65
2024/01/24 04:40:41;;;;;;;78.70;40.30;;;;;;;-1.01;73.43;102382.27;107638;1251;107501;-65
2024/01/24 04:43:10;;;;;;;76.10;41.30;;;;;;;-1.05;73.19;102380.77;107595;1251;97873;-65
2024/01/24 04:45:39;;;;;;;77.10;39.90;;;;;;;-1.11;73.24;102380.15;107645;1251;98455;-65
2024/01/24 04:48:07;;;;;;;88.00;43.70;;;;;;;-1.19;72.91;102379.02;107611;1251;111452;-65
2024/01/24 04:50:36;;;;;;;83.80;42.80;;;;;;;-1.28;72.85;102371.56;107618;1251;107874;-64
2024/01/24 04:53:06;;;;;;;99.00;45.50;;;;;;;-1.39;72.51;102364.84;107609;1251;107911;-65
2024/01/24 04:55:34;;;;;;;89.70;43.80;;;;;;;-1.51;72.40;102365.01;107587;1251;97850;-67
2024/01/24 04:58:03;;;;;;;88.40;45.20;;;;;;;-1.63;72.26;102361.80;107639;1251;98373;-63
2024/01/24 05:00:31;;;;;;;95.70;50.80;;;;;;;-1.73;72.28;102363.33;107621;1251;110837;-64
2024/01/24 05:03:00;;;;;;;92.30;46.20;;;;;;;-1.84;72.47;102369.95;107603;1251;107933;-66
2024/01/24 05:05:29;;;;;;;94.70;45.40;;;;;;;-1.94;72.74;102363.91;107669;1256;109086;-63
2024/01/24 05:07:57;;;;;;;90.10;42.60;;;;;;;-2.05;72.49;102362.95;107629;1251;97844;-65
2024/01/24 05:10:26;;;;;;;85.50;40.90;;;;;;;-2.17;72.49;102365.19;107629;1251;97892;-66
2024/01/24 05:12:54;;;;;;;88.30;43.70;;;;;;;-2.27;72.54;102370.38;107649;1251;111264;-67
2024/01/24 05:15:23;;;;;;;77.70;39.70;;;;;;;-2.38;72.44;102374.16;107508;1251;108287;-66
2024/01/24 05:17:52;;;;;;;82.70;41.60;;;;;;;-2.48;72.38;102375.83;107617;1251;107239;-66
2024/01/24 05:20:21;;;;;;;92.30;41.10;;;;;;;-2.61;72.27;102368.02;107567;1254;97929;-65
2024/01/24 05:22:49;;;;;;;87.00;40.30;;;;;;;-2.71;72.24;102371.98;107626;1251;98552;-65
2024/01/24 05:25:18;;;;;;;82.80;42.50;;;;;;;-2.80;72.25;102370.63;107588;1250;111699;-66
2024/01/24 05:27:46;;;;;;;85.00;43.10;;;;;;;-2.88;72.35;102365.23;107631;1251;107693;-63
2024/01/24 05:30:15;;;;;;;83.30;40.70;;;;;;;-2.92;72.70;102364.40;107569;1250;107961;-65
2024/01/24 05:33:02;;;;;;;84.40;39.40;;;;;;;-2.96;72.79;102365.29;107585;1254;97839;-64
2024/01/24 05:35:30;;;;;;;74.20;38.60;;;;;;;-3.00;72.49;102365.85;107607;1252;97746;-64
2024/01/24 05:37:58;;;;;;;80.70;41.10;;;;;;;-3.04;72.37;102369.73;107601;1255;111555;-66
2024/01/24 05:40:27;;;;;;;87.10;42.40;;;;;;;-3.09;72.93;102368.70;107599;1255;107962;-66
2024/01/24 05:42:56;;;;;;;91.10;41.80;;;;;;;-3.18;72.63;102373.84;107565;1253;106731;-66
2024/01/24 05:45:24;;;;;;;91.00;42.10;;;;;;;-3.26;72.62;102376.52;107584;1253;97864;-66
2024/01/24 05:47:52;;;;;;;92.20;43.10;;;;;;;-3.32;72.78;102368.83;107604;1254;98382;-64
2024/01/24 05:50:21;;;;;;;86.20;42.80;;;;;;;-3.35;72.73;102370.42;107575;1253;110712;-65
2024/01/24 05:52:49;;;;;;;87.90;45.00;;;;;;;-3.37;73.09;102369.04;107637;1254;108090;-65
2024/01/24 05:55:17;;;;;;;81.70;42.50;;;;;;;-3.40;73.07;102368.70;107537;1253;107440;-65
2024/01/24 05:57:49;;;;;;;84.10;42.30;;;;;;;-3.44;73.31;102370.30;107560;1253;97914;-65
2024/01/24 06:00:17;;;;;;;86.30;43.70;;;;;;;-3.47;72.90;102372.41;107600;1254;97812;-64
2024/01/24 06:02:47;;;;;;;83.60;42.50;;;;;;;-3.47;73.50;102371.36;107590;1254;111604;-65
2024/01/24 06:05:16;;;;;;;83.80;43.60;;;;;;;-3.46;73.44;102363.81;107595;1254;109357;-65
2024/01/24 06:07:49;;;;;;;85.50;42.40;;;;;;;-3.44;73.65;102355.20;107567;1254;108487;-65
2024/01/24 06:10:17;;;;;;;82.10;41.80;;;;;;;-3.43;73.74;102352.74;107561;1254;97840;-64
2024/01/24 06:12:46;;;;;;;83.10;40.30;;;;;;;-3.41;74.09;102353.27;107618;1253;97804;-65
2024/01/24 06:15:15;;;;;;;84.10;40.40;;;;;;;-3.38;74.12;102356.05;107613;1252;111742;-65
2024/01/24 06:17:44;;;;;;;84.00;41.70;;;;;;;-3.34;74.52;102350.42;107617;1254;108562;-65
2024/01/24 06:20:13;;;;;;;87.10;40.70;;;;;;;-3.30;74.73;102350.93;107578;1254;107137;-65
2024/01/24 06:22:42;;;;;;;74.20;40.60;;;;;;;-3.24;74.53;102352.64;107552;1254;97828;-65
2024/01/24 06:25:10;;;;;;;78.60;40.20;;;;;;;-3.15;74.82;102357.15;107547;1254;97824;-66
2024/01/24 06:27:39;;;;;;;72.10;38.40;;;;;;;-3.07;74.47;102358.87;107633;1254;111131;-65
2024/01/24 06:30:11;;;;;;;75.00;40.40;;;;;;;-3.03;74.51;102363.75;107618;1254;108313;-65
2024/01/24 06:32:51;;;;;;;75.30;37.50;;;;;;;-2.96;74.69;102359.15;107569;1250;108222;-64
2024/01/24 06:35:21;;;;;;;82.70;40.00;;;;;;;-2.89;74.41;102363.31;107528;1251;97755;-65
2024/01/24 06:37:51;;;;;;;84.80;40.00;;;;;;;-2.82;74.44;102366.61;107598;1251;97695;-66
2024/01/24 06:40:20;;;;;;;75.30;39.30;;;;;;;-2.80;74.22;102365.19;107692;1251;111890;-66
2024/01/24 06:42:50;;;;;;;75.60;39.00;;;;;;;-2.76;74.16;102368.50;107598;1251;108195;-68
2024/01/24 06:45:19;;;;;;;80.70;40.60;;;;;;;-2.72;74.11;102371.98;107612;1251;106471;-66
2024/01/24 06:47:48;;;;;;;82.30;38.40;;;;;;;-2.71;73.97;102376.19;107592;1251;97860;-65
2024/01/24 06:50:18;;;;;;;81.10;39.90;;;;;;;-2.75;73.62;102380.61;107588;1251;98237;-65
2024/01/24 06:52:47;;;;;;;75.40;38.80;;;;;;;-2.76;73.49;102379.55;107536;1251;112178;-65
2024/01/24 06:55:17;;;;;;;77.90;42.00;;;;;;;-2.74;73.42;102371.47;107581;1251;108778;-65
2024/01/24 06:57:45;;;;;;;82.40;39.30;;;;;;;-2.72;73.50;102368.64;107557;1250;107450;-65
2024/01/24 07:00:15;;;;;;;84.40;41.60;;;;;;;-2.69;73.49;102364.94;107524;1251;97885;-66
2024/01/24 07:02:43;;;;;;;80.10;41.60;;;;;;;-2.67;73.33;102365.62;107663;1251;98436;-66
2024/01/24 07:05:12;;;;;;;78.10;40.70;;;;;;;-2.66;73.23;102366.32;107592;1251;111982;-66
2024/01/24 07:07:42;;;;;;;94.60;44.30;;;;;;;-2.69;72.90;102361.95;107544;1251;107942;-64
2024/01/24 07:10:11;;;;;;;95.80;47.30;;;;;;;-2.70;72.86;102356.17;107622;1251;107611;-63
2024/01/24 07:12:45;;;;;;;92.40;46.00;;;;;;;-2.69;72.94;102362.30;107592;1250;97704;-65
2024/01/24 07:15:18;;;;;;;87.20;43.60;;;;;;;-2.67;72.92;102361.41;107606;1250;97918;-65
2024/01/24 07:17:47;;;;;;;82.60;42.20;;;;;;;-2.62;73.03;102365.41;107591;1251;111734;-65
2024/01/24 07:20:18;;;;;;;83.90;43.30;;;;;;;-2.58;73.06;102359.58;107582;1254;109396;-65
2024/01/24 07:22:47;;;;;;;82.90;44.80;;;;;;;-2.53;72.98;102352.67;107585;1251;106551;-65
2024/01/24 07:25:19;;;;;;;78.50;42.60;;;;;;;-2.50;72.86;102356.52;107540;1251;97822;-65
2024/01/24 07:27:48;;;;;;;87.90;46.50;;;;;;;-2.46;73.23;102350.17;107590;1253;97873;-65
2024/01/24 07:30:17;;;;;;;91.60;48.70;;;;;;;-2.42;73.18;102343.98;107611;1251;111286;-65
2024/01/24 07:32:46;;;;;;;85.40;46.40;;;;;;;-2.36;73.19;102345.14;107563;1253;107938;-66
2024/01/24 07:35:15;;;;;;;95.30;48.20;;;;;;;-2.29;73.36;102343.69;107535;1254;108372;-66
2024/01/24 07:37:44;;;;;;;92.40;45.90;;;;;;;-2.22;73.47;102349.06;107559;1251;97828;-65
2024/01/24 07:40:19;;;;;;;110.20;51.00;;;;;;;-2.12;73.64;102350.02;107635;1251;97827;-65
2024/01/24 07:42:49;;;;;;;88.30;47.40;;;;;;;-2.04;73.54;102343.44;107558;1250;111885;-67
2024/01/24 07:45:18;;;;;;;92.30;46.70;;;;;;;-1.96;73.44;102343.00;107575;1251;107377;-66
2024/01/24 07:47:47;;;;;;;96.80;50.70;;;;;;;-1.88;73.29;102346.95;107591;1254;107881;-64
2024/01/24 07:50:16;;;;;;;97.40;50.10;;;;;;;-1.78;73.74;102348.79;107572;1250;97822;-65
2024/01/24 07:52:44;;;;;;;90.10;47.80;;;;;;;-1.68;73.58;102345.15;107568;1251;98388;-64
2024/01/24 07:55:13;;;;;;;97.30;52.70;;;;;;;-1.59;73.73;102335.88;107641;1251;111686;-65
2024/01/24 07:57:45;;;;;;;97.20;51.70;;;;;;;-1.48;73.74;102330.48;107598;1251;108428;-65
2024/01/24 08:00:16;;;;;;;105.70;53.10;;;;;;;-1.37;73.65;102329.96;107573;1251;108930;-65
2024/01/24 08:02:46;;;;;;;106.90;58.60;;;;;;;-1.23;73.71;102326.61;107548;1254;97851;-64
2024/01/24 08:05:19;;;;;;;96.40;53.20;;;;;;;-1.08;73.78;102319.89;107564;1251;98471;-64
2024/01/24 08:07:48;;;;;;;97.20;52.60;;;;;;;-0.97;73.88;102310.20;107611;1250;112295;-64
2024/01/24 08:10:18;;;;;;;94.00;50.90;;;;;;;-0.80;74.42;102316.11;107627;1251;107225;-64
2024/01/24 08:12:49;;;;;;;93.50;49.30;;;;;;;-0.68;74.11;102317.49;107606;1251;108153;-66
2024/01/24 08:15:18;;;;;;;86.20;48.30;;;;;;;-0.58;74.16;102324.55;107588;1254;97916;-65
2024/01/24 08:17:47;;;;;;;83.70;46.40;;;;;;;-0.49;74.51;102323.34;107653;1251;99560;-64
2024/01/24 08:20:19;;;;;;;91.60;46.90;;;;;;;-0.39;74.05;102327.23;107607;1251;111917;-63
2024/01/24 08:22:48;;;;;;;84.10;45.20;;;;;;;-0.28;73.87;102323.67;107622;1251;108182;-64
2024/01/24 08:25:17;;;;;;;90.70;49.40;;;;;;;-0.20;73.30;102323.71;107555;1251;108563;-65
2024/01/24 08:27:45;;;;;;;95.40;45.90;;;;;;;-0.08;73.49;102316.45;107580;1251;97818;-65
2024/01/24 08:30:15;;;;;;;87.60;46.80;;;;;;;0.08;73.88;102318.25;107622;1251;98381;-64
2024/01/24 08:32:44;;;;;;;84.80;47.20;;;;;;;0.25;73.90;102313.66;107564;1250;111453;-65
2024/01/24 08:35:13;;;;;;;83.60;45.00;;;;;;;0.44;73.72;102310.80;107665;1251;107883;-65
2024/01/24 08:37:42;;;;;;;93.80;48.90;;;;;;;0.59;73.20;102311.38;107623;1251;108643;-65
2024/01/24 08:40:11;;;;;;;93.40;49.20;;;;;;;0.78;73.49;102307.05;107585;1251;97915;-65
2024/01/24 08:42:41;;;;;;;89.00;50.40;;;;;;;1.00;72.98;102298.95;107685;1251;97762;-64
2024/01/24 08:45:11;;;;;;;100.20;55.30;;;;;;;1.27;72.66;102291.58;106902;1251;928728;-65
2024/01/24 08:47:39;;;;;;;103.30;57.20;;;;;;;1.53;72.09;102290.92;107595;1251;106942;-66
2024/01/24 08:50:08;;;;;;;103.90;56.60;;;;;;;1.77;72.39;102279.68;107601;1251;107429;-64
2024/01/24 08:52:38;;;;;;;108.50;58.60;;;;;;;1.99;71.64;102279.60;107645;1254;97943;-65
2024/01/24 08:55:07;;;;;;;119.60;62.60;;;;;;;2.28;71.58;102273.80;107588;1251;99650;-66
2024/01/24 08:57:36;;;;;;;117.70;62.00;;;;;;;2.69;70.61;102270.27;107641;1251;112095;-65
2024/01/24 09:00:07;;;;;;;114.50;61.20;;;;;;;3.30;68.67;102258.38;107655;1251;108995;-66
2024/01/24 09:02:36;;;;;;;111.10;60.80;;;;;;;3.89;66.87;102254.38;107653;1251;107627;-64
2024/01/24 09:05:05;;;;;;;101.00;56.20;;;;;;;4.48;66.27;102247.49;107599;1251;97820;-67
2024/01/24 09:07:35;;;;;;;92.20;53.20;;;;;;;5.12;65.50;102243.50;107591;1251;97706;-65
2024/01/24 09:10:04;;;;;;;102.50;58.20;;;;;;;5.62;63.95;102238.88;107660;1251;111563;-65
2024/01/24 09:12:33;;;;;;;93.60;52.70;;;;;;;6.01;61.88;102230.55;107655;1250;108489;-66
2024/01/24 09:15:03;;;;;;;93.80;52.60;;;;;;;6.32;61.37;102217.39;107584;1254;108007;-66
2024/01/24 09:17:33;;;;;;;93.40;52.50;;;;;;;6.82;61.32;102212.83;107630;1254;97866;-65
2024/01/24 09:20:03;;;;;;;84.90;51.80;;;;;;;7.25;60.66;102207.64;107653;1251;97795;-65
2024/01/24 09:22:31;;;;;;;91.50;51.80;;;;;;;7.68;59.64;102200.06;107648;1251;111522;-66
2024/01/24 09:25:00;;;;;;;84.10;50.90;;;;;;;7.99;58.11;102195.73;107559;1251;108658;-67
2024/01/24 09:27:33;;;;;;;85.90;49.20;;;;;;;8.26;57.57;102183.89;107561;1254;108235;-67
2024/01/24 09:30:03;;;;;;;86.90;49.10;;;;;;;8.65;58.37;102175.80;107611;1251;97857;-64
2024/01/24 09:32:31;;;;;;;87.90;50.40;;;;;;;9.12;57.61;102170.02;107597;1251;98382;-66
2024/01/24 09:35:00;;;;;;;72.70;45.70;;;;;;;9.48;55.39;102159.79;107598;1251;111411;-65
2024/01/24 09:37:29;;;;;;;79.50;47.80;;;;;;;9.80;54.96;102146.31;107599;1250;108127;-63
2024/01/24 09:39:57;;;;;;;75.80;43.70;;;;;;;10.25;54.18;102134.13;107563;1251;108241;-64
2024/01/24 09:42:26;;;;;;;73.40;44.40;;;;;;;10.76;53.68;102123.98;107674;1251;97858;-66
2024/01/24 09:44:58;;;;;;;72.90;45.30;;;;;;;11.13;52.89;102113.58;107641;1251;97841;-66
2024/01/24 09:47:27;;;;;;;58.50;38.70;;;;;;;11.47;51.79;102104.94;107656;1251;111973;-67
2024/01/24 09:49:56;;;;;;;63.80;40.70;;;;;;;11.82;51.57;102095.02;107608;1251;107929;-67
2024/01/24 09:52:26;;;;;;;59.00;38.10;;;;;;;12.06;48.90;102084.14;107607;1254;108166;-66
2024/01/24 09:55:00;;;;;;;53.70;35.80;;;;;;;12.44;49.84;102079.18;107630;1251;97835;-65
2024/01/24 09:57:29;;;;;;;51.80;34.90;;;;;;;12.97;49.63;102065.02;107647;1251;97703;-65
2024/01/24 09:59:58;;;;;;;59.80;37.70;;;;;;;13.42;47.92;102060.10;107614;1251;110507;-66
2024/01/24 10:02:27;;;;;;;61.60;38.40;;;;;;;13.67;47.31;102053.27;107637;1250;107812;-66
2024/01/24 10:04:58;;;;;;;53.50;37.00;;;;;;;13.85;46.63;102049.45;107589;1251;107685;-65
2024/01/24 10:07:28;;;;;;;49.70;35.10;;;;;;;14.03;44.69;102040.05;107554;1251;97823;-65
2024/01/24 10:10:07;;;;;;;49.70;34.00;;;;;;;14.22;44.96;102034.27;107583;1251;97816;-65
2024/01/24 10:12:36;;;;;;;51.00;34.70;;;;;;;14.51;45.44;102032.79;107619;1251;111070;-64
2024/01/24 10:15:06;;;;;;;51.10;34.40;;;;;;;14.77;43.86;102026.98;107587;1251;108006;-65
2024/01/24 10:17:34;;;;;;;51.30;34.60;;;;;;;15.08;42.91;102020.70;107625;1251;106842;-65
2024/01/24 10:20:06;;;;;;;49.70;35.60;;;;;;;15.29;42.08;102013.88;107568;1251;98523;-65
2024/01/24 10:22:34;;;;;;;49.50;33.50;;;;;;;15.34;40.23;102002.48;107593;1251;97813;-65
2024/01/24 10:25:04;;;;;;;47.10;33.90;;;;;;;15.05;38.24;101998.69;107619;1250;111895;-66
2024/01/24 10:27:34;;;;;;;44.00;31.70;;;;;;;15.04;39.99;101999.92;107667;1251;107496;-67
2024/01/24 10:30:09;;;;;;;45.90;32.80;;;;;;;15.37;40.85;101992.31;107635;1255;107656;-67
2024/01/24 10:32:38;;;;;;;47.40;31.80;;;;;;;15.79;40.50;101981.25;107637;1255;97914;-66
2024/01/24 10:35:08;;;;;;;44.90;32.60;;;;;;;15.98;39.68;101974.39;107658;1251;98449;-66
2024/01/24 10:37:37;;;;;;;46.50;32.20;;;;;;;16.17;40.10;101968.26;107618;1250;110582;-65
2024/01/24 10:40:11;;;;;;;45.30;31.70;;;;;;;16.51;39.72;101968.83;107600;1251;108528;-66
2024/01/24 10:42:42;;;;;;;48.90;33.20;;;;;;;16.89;38.48;101968.23;107609;1251;108643;-66
2024/01/24 10:45:11;;;;;;;45.60;32.70;;;;;;;17.00;37.76;101952.91;107649;1251;97857;-66
2024/01/24 10:47:41;;;;;;;45.10;32.40;;;;;;;17.26;37.90;101942.70;107632;1251;97901;-64
2024/01/24 10:50:12;;;;;;;46.20;30.60;;;;;;;17.46;37.83;101939.36;107580;1251;111664;-65
2024/01/24 10:52:42;;;;;;;41.80;29.70;;;;;;;17.81;37.19;101936.82;107583;1251;107461;-66
2024/01/24 10:55:13;;;;;;;46.30;31.70;;;;;;;17.92;36.21;101930.05;107593;1251;107160;-65
2024/01/24 10:57:43;;;;;;;41.10;31.20;;;;;;;17.89;36.08;101929.85;107650;1251;97797;-66
2024/01/24 11:00:15;;;;;;;44.60;32.50;;;;;;;18.08;35.79;101923.27;107627;1255;97756;-65
2024/01/24 11:02:44;;;;;;;46.50;31.70;;;;;;;18.16;35.73;101913.50;107608;1251;112494;-64
2024/01/24 11:05:25;;;;;;;44.90;29.50;;;;;;;18.31;34.50;101908.02;107619;1251;109077;-65